Historyczne dane pomiarowe

Dodano dane terminowe – wersja testowa.

Dane z okresu 1951-2018

Wersja bazy: 1.27 [2018-11-28, lista zmian], aktualizacja planowana na 2018-12-07

Dane meteo z obszaru Polski uzyskane na podstawie danych udostępnionych przez Instytut Meteorologii i Gospodarki Wodnej – Państwowy Instytut Badawczy.

 

Wybierz Datę:    

       

TemperaturaWilgotnośćWiatrCiśnienieOpadyŚniegCzas trwania zjawisk
 Stacja t tx tn tng RH VA  wxwx mslp ppp RRR   cm mm wxwxwxwxwxwxwx
1959-11-08 3.4 3.8 2.2 0.5 97.3- 8.0 5.3---- 0.2------------
1959-11-09 4.3 5.1 3.5 1.3 97.3- 8.0 0.3---- 0.6------------
1959-11-10 5.0 6.1 4.2 2.3 97.5- 8.0 1.0---- 0.3------------
1959-11-11 5.0 5.4 3.9 1.7 95.5- 8.0 1.3---- 0.0------------
1959-11-12 4.0 6.5 0.3 -3.0 91.3- 7.3 0.7---- 0.0------------
1959-11-13 4.9 7.1 3.5 1.1 86.8- 7.3 6.0---- 0.0------------
1959-11-14 6.4 7.7 4.3 1.9 78.5- 7.7 10.3---- 0.0------------
1959-11-15 1.6 6.7 0.7 0.0 67.3- 2.7 7.3---- 0.0------------
1959-11-16 -1.7 0.7 -2.8 -6.4 85.3- 2.7 6.7---- 0.0------------
1959-11-17 -3.2 -2.2 -3.4 -5.0 93.3- 8.0 0.7---- 0.0------------
1959-11-18 0.0 1.0 -3.4 -5.1 94.0- 8.0 6.7---- 4.0------------
1959-11-19 2.1 2.5 0.5 -1.6 97.3- 8.0 2.3---- 1.9------------
1959-11-20 3.0 3.5 1.5 0.0 98.5- 8.0 1.0---- 0.1------------
1959-11-21 1.2 4.0 -0.3 -0.1 93.5- 8.0 3.0---- 0.0------------
1959-11-22 -2.3 0.4 -6.7-11.2 96.5- 8.0 3.0---- 0.0------------
1959-11-23 -0.1 0.5 -1.3 -4.8 97.8- 8.0 1.7---- 0.0------------
1959-11-24 0.6 4.1 -1.0 -6.1 93.5- 5.3 1.3---- 0.0------------
1959-11-25 -1.5 4.6 -4.2 -7.0 91.8- 2.0 1.0---- 0.0------------
1959-11-26 -3.4 -1.0 -8.2-12.4 97.0- 8.0 1.7---- 0.0------------
1959-11-27 0.0 1.5 -4.3 -5.6 93.8- 8.0 3.7---- 0.0------------
1959-11-28 2.4 3.3 0.7 -1.7 94.8- 8.0 2.3---- 0.4------------
1959-11-29 2.4 3.4 2.0 -0.7 98.0- 8.0 1.0---- 5.8------------
1959-11-30 3.0 4.0 0.4 -1.1 94.3- 8.0 1.7---- 0.0------------
1959-12-01 1.4 3.9 0.0 -1.1 95.5- 8.0 5.0---- 0.0------------
1959-12-02 2.2 2.7 1.4 -0.3 96.0- 8.0 3.3---- 8.6------------
1959-12-03 3.4 3.7 1.9 0.3 97.5- 8.0 1.3---- 0.5------------
1959-12-04 0.1 3.6 -1.2 0.0 95.5- 8.0 5.0---- 15.1------------
1959-12-05 -8.2 -1.0-10.3 -6.0 80.3- 5.7 6.7---- 3.0-- 2---------
1959-12-06-13.8-10.1-15.4-16.6 74.8- 0.7 7.3---- 0.0-- 2---------
1959-12-07-15.6-14.6-18.3-19.6 73.5- 3.7 4.0---- 1.5-- 2---------
88.2 ms

 

Źródłem pochodzenia danych jest Instytut Meteorologii i Gospodarki Wodnej – Państwowy Instytut Badawczy. Dane Instytutu Meteorologii i Gospodarki Wodnej – Państwowego Instytutu Badawczego zostały przetworzone.

Dane źródłowe można odnaleźć na stronie https://dane.imgw.pl